createdAt,value
2022-12-18T00:01:43.874Z,40.17
2022-12-18T00:04:23.195Z,40.88
2022-12-18T00:06:50.210Z,39.35
2022-12-18T00:09:16.879Z,43.35
2022-12-18T00:11:43.372Z,38.75
2022-12-18T00:14:12.596Z,38.80
2022-12-18T00:16:39.259Z,38.67
2022-12-18T00:19:06.946Z,37.25
2022-12-18T00:21:34.498Z,41.15
2022-12-18T00:24:01.435Z,38.38
2022-12-18T00:26:33.255Z,39.53
2022-12-18T00:29:05.737Z,38.40
2022-12-18T00:31:32.551Z,41.97
2022-12-18T00:33:59.759Z,42.20
2022-12-18T00:36:28.656Z,36.42
2022-12-18T00:38:56.698Z,38.88
2022-12-18T00:41:24.006Z,35.85
2022-12-18T00:43:50.894Z,38.10
2022-12-18T00:46:17.526Z,40.53
2022-12-18T00:48:46.496Z,37.08
2022-12-18T00:51:13.013Z,38.92
2022-12-18T00:53:40.527Z,36.95
2022-12-18T00:56:07.498Z,35.88
2022-12-18T00:58:36.883Z,37.53
2022-12-18T01:01:05.609Z,37.08
2022-12-18T01:03:32.118Z,36.42
2022-12-18T01:05:59.276Z,34.30
2022-12-18T01:08:26.570Z,35.90
2022-12-18T01:10:53.060Z,35.72
2022-12-18T01:13:23.793Z,36.13
2022-12-18T01:15:51.266Z,34.05
2022-12-18T01:18:17.874Z,34.63
2022-12-18T01:20:44.455Z,37.70
2022-12-18T01:23:14.366Z,37.03
2022-12-18T01:25:41.087Z,36.60
2022-12-18T01:28:07.656Z,36.88
2022-12-18T01:30:34.129Z,38.88
2022-12-18T01:33:00.934Z,39.22
2022-12-18T01:35:27.669Z,34.90
2022-12-18T01:37:57.311Z,36.75
2022-12-18T01:40:24.138Z,39.13
2022-12-18T01:42:54.633Z,40.00
2022-12-18T01:48:07.787Z,38.70
2022-12-18T01:50:40.093Z,39.38
2022-12-18T01:53:11.143Z,43.65
2022-12-18T01:55:47.909Z,39.80
2022-12-18T01:58:14.711Z,41.13
2022-12-18T02:00:41.639Z,39.35
2022-12-18T02:03:08.334Z,40.15
2022-12-18T02:05:46.869Z,37.80
2022-12-18T02:08:38.746Z,32.65
2022-12-18T02:11:27.420Z,36.28
2022-12-18T02:14:07.530Z,34.25
2022-12-18T02:16:46.823Z,34.88
2022-12-18T02:19:59.306Z,37.42
2022-12-18T02:22:54.923Z,39.78
2022-12-18T02:25:41.686Z,35.38
2022-12-18T02:28:11.675Z,36.10
2022-12-18T02:30:39.081Z,40.35
2022-12-18T02:33:08.082Z,39.97
2022-12-18T02:35:35.753Z,37.72
2022-12-18T02:38:04.258Z,38.03
2022-12-18T02:40:31.452Z,38.80
2022-12-18T02:43:04.523Z,37.80
2022-12-18T02:45:31.084Z,38.67
2022-12-18T02:47:57.579Z,40.80
2022-12-18T02:50:32.664Z,37.50
2022-12-18T02:53:15.014Z,37.15
2022-12-18T02:55:55.140Z,41.28
2022-12-18T02:58:49.455Z,36.90
2022-12-18T03:01:22.970Z,36.78
2022-12-18T03:03:54.802Z,33.35
2022-12-18T03:06:38.339Z,36.08
2022-12-18T03:09:09.609Z,36.70
2022-12-18T03:11:39.792Z,35.03
2022-12-18T03:14:08.050Z,37.53
2022-12-18T03:16:35.564Z,38.13
2022-12-18T03:19:05.243Z,37.95
2022-12-18T03:21:55.532Z,35.05
2022-12-18T03:24:23.122Z,36.65
2022-12-18T03:26:54.635Z,36.47
2022-12-18T03:29:25.948Z,36.22
2022-12-18T03:31:59.331Z,41.90
2022-12-18T03:34:35.010Z,34.90
2022-12-18T03:37:02.487Z,35.58
2022-12-18T03:39:29.066Z,35.72
2022-12-18T03:42:06.662Z,35.85
2022-12-18T03:44:56.437Z,37.65
2022-12-18T03:47:29.881Z,40.10
2022-12-18T03:50:22.844Z,42.50
2022-12-18T03:53:08.546Z,38.80
2022-12-18T03:55:35.905Z,37.17
2022-12-18T03:58:03.750Z,40.42
2022-12-18T04:00:30.811Z,43.05
2022-12-18T04:02:58.046Z,42.05
2022-12-18T04:05:26.736Z,40.88
2022-12-18T04:07:54.286Z,39.08
2022-12-18T04:10:20.794Z,37.95
2022-12-18T04:12:59.334Z,39.13
2022-12-18T04:15:38.635Z,40.70
2022-12-18T04:18:09.055Z,37.80
2022-12-18T04:20:35.567Z,39.75
2022-12-18T04:23:02.082Z,38.70
2022-12-18T04:25:28.558Z,41.83
2022-12-18T04:27:55.268Z,37.70
2022-12-18T04:30:21.865Z,36.47
2022-12-18T04:32:52.155Z,38.63
2022-12-18T04:35:19.026Z,38.67
2022-12-18T04:37:45.531Z,40.75
2022-12-18T04:40:12.814Z,38.88
2022-12-18T04:42:40.782Z,42.67
2022-12-18T04:45:08.307Z,40.80
2022-12-18T04:47:34.770Z,40.05
2022-12-18T04:50:01.350Z,40.25
2022-12-18T04:52:28.103Z,40.60
2022-12-18T04:54:54.701Z,42.08
2022-12-18T04:57:21.440Z,41.55
2022-12-18T04:59:47.959Z,39.15
2022-12-18T05:02:14.597Z,37.72
2022-12-18T05:04:41.251Z,39.17
2022-12-18T05:07:07.772Z,38.17
2022-12-18T05:09:34.292Z,36.40
2022-12-18T05:12:00.763Z,42.88
2022-12-18T05:14:27.290Z,37.67
2022-12-18T05:16:56.777Z,40.55
2022-12-18T05:19:27.091Z,37.50
2022-12-18T05:21:53.580Z,36.42
2022-12-18T05:24:20.351Z,37.90
2022-12-18T05:26:46.835Z,37.08
2022-12-18T05:29:13.597Z,40.33
2022-12-18T05:31:40.709Z,37.75
2022-12-18T05:34:08.828Z,37.17
2022-12-18T05:36:35.496Z,41.75
2022-12-18T05:39:02.166Z,40.05
2022-12-18T05:41:28.642Z,40.80
2022-12-18T05:43:55.108Z,42.85
2022-12-18T05:46:24.275Z,43.33
2022-12-18T05:48:51.078Z,43.15
2022-12-18T05:51:20.338Z,40.92
2022-12-18T05:53:47.272Z,39.00
2022-12-18T05:56:16.890Z,38.70
2022-12-18T05:58:44.321Z,38.78
2022-12-18T06:01:17.047Z,40.20
2022-12-18T06:03:44.030Z,42.58
2022-12-18T06:06:22.452Z,40.28
2022-12-18T06:08:50.077Z,39.20
2022-12-18T06:11:21.750Z,36.13
2022-12-18T06:13:58.164Z,36.85
2022-12-18T06:16:26.517Z,35.70
2022-12-18T06:18:53.029Z,38.58
2022-12-18T06:21:19.550Z,41.33
2022-12-18T06:23:46.006Z,40.50
2022-12-18T06:26:13.655Z,38.15
2022-12-18T06:28:40.272Z,36.05
2022-12-18T06:31:07.842Z,37.05
2022-12-18T06:33:35.260Z,38.97
2022-12-18T06:36:12.899Z,37.40
2022-12-18T06:38:41.543Z,39.40
2022-12-18T06:41:13.322Z,37.78
2022-12-18T06:43:40.345Z,41.83
2022-12-18T06:46:07.630Z,39.20
2022-12-18T06:48:34.561Z,39.60
2022-12-18T06:51:01.187Z,37.92
2022-12-18T06:53:27.698Z,38.95
2022-12-18T06:56:03.852Z,38.20
2022-12-18T06:58:33.809Z,36.10
2022-12-18T07:01:01.753Z,34.80
2022-12-18T07:03:28.408Z,35.90
2022-12-18T07:05:56.000Z,33.42
2022-12-18T07:08:22.659Z,38.55
2022-12-18T07:10:52.912Z,33.58
2022-12-18T07:13:23.108Z,38.05
2022-12-18T07:15:49.963Z,29.20
2022-12-18T07:18:16.403Z,30.52
2022-12-18T07:20:42.979Z,31.00
2022-12-18T07:23:09.570Z,32.03
2022-12-18T07:25:37.317Z,31.45
2022-12-18T07:28:04.246Z,29.83
2022-12-18T07:30:30.937Z,26.10
2022-12-18T07:32:57.414Z,27.65
2022-12-18T07:35:25.506Z,27.27
2022-12-18T07:37:52.407Z,26.38
2022-12-18T07:40:18.941Z,26.90
2022-12-18T07:42:45.490Z,28.67
2022-12-18T07:45:12.063Z,27.42
2022-12-18T07:47:38.695Z,26.92
2022-12-18T07:50:07.588Z,28.25
2022-12-18T07:52:34.212Z,25.60
2022-12-18T07:55:00.728Z,27.05
2022-12-18T07:57:49.457Z,25.42
2022-12-18T08:00:14.555Z,28.45
2022-12-18T08:02:42.184Z,25.05
2022-12-18T08:05:09.472Z,27.90
2022-12-18T08:07:35.951Z,26.90
2022-12-18T08:10:02.479Z,27.88
2022-12-18T08:12:29.064Z,27.63
2022-12-18T08:14:55.640Z,28.25
2022-12-18T08:17:22.111Z,26.27
2022-12-18T08:19:52.056Z,24.67
2022-12-18T08:22:18.555Z,25.20
2022-12-18T08:24:45.783Z,26.55
2022-12-18T08:27:28.858Z,26.35
2022-12-18T08:29:56.877Z,27.58
2022-12-18T08:32:24.224Z,22.90
2022-12-18T08:34:50.945Z,26.80
2022-12-18T08:37:17.426Z,25.98
2022-12-18T08:39:44.304Z,27.75
2022-12-18T08:42:13.715Z,26.15
2022-12-18T08:44:40.284Z,26.88
2022-12-18T08:47:07.694Z,26.30
2022-12-18T08:49:35.174Z,30.20
2022-12-18T08:52:02.140Z,25.35
2022-12-18T08:54:28.656Z,40.30
2022-12-18T08:56:55.222Z,28.20
2022-12-18T08:59:21.679Z,25.80
2022-12-18T09:01:48.377Z,29.70
2022-12-18T09:04:15.076Z,23.77
2022-12-18T09:06:42.087Z,24.23
2022-12-18T09:09:09.705Z,24.55
2022-12-18T09:11:36.198Z,23.48
2022-12-18T09:14:02.800Z,24.35
2022-12-18T09:16:32.349Z,26.67
2022-12-18T09:19:00.647Z,24.40
2022-12-18T09:21:29.482Z,23.83
2022-12-18T09:23:56.528Z,26.25
2022-12-18T09:26:23.928Z,24.30
2022-12-18T09:28:50.744Z,27.60
2022-12-18T09:31:19.629Z,27.02
2022-12-18T09:33:46.123Z,24.95
2022-12-18T09:36:16.068Z,24.05
2022-12-18T09:38:45.210Z,26.23
2022-12-18T09:41:20.663Z,27.48
2022-12-18T09:43:51.215Z,25.70
2022-12-18T09:46:22.737Z,24.25
2022-12-18T09:48:52.291Z,25.27
2022-12-18T09:51:27.060Z,23.90
2022-12-18T09:53:58.553Z,26.13
2022-12-18T09:56:29.626Z,24.02
2022-12-18T09:58:59.711Z,26.95
2022-12-18T10:01:33.985Z,27.40
2022-12-18T10:04:09.080Z,28.48
2022-12-18T10:06:53.799Z,28.45
2022-12-18T10:09:39.501Z,26.23
2022-12-18T10:12:18.248Z,27.88
2022-12-18T10:14:52.573Z,28.98
2022-12-18T10:17:28.097Z,28.25
2022-12-18T10:20:02.781Z,27.05
2022-12-18T10:22:50.208Z,23.60
2022-12-18T10:25:23.979Z,27.17
2022-12-18T10:27:54.629Z,28.65
2022-12-18T10:30:23.420Z,27.42
2022-12-18T10:32:49.952Z,24.48
2022-12-18T10:35:27.429Z,25.30
2022-12-18T10:38:08.639Z,25.58
2022-12-18T10:40:56.335Z,30.67
2022-12-18T10:43:29.572Z,25.75
2022-12-18T10:46:00.421Z,26.98
2022-12-18T10:48:27.535Z,27.02
2022-12-18T10:51:10.735Z,29.60
2022-12-18T10:53:41.015Z,27.23
2022-12-18T10:56:08.812Z,26.20
2022-12-18T10:58:39.398Z,24.85
2022-12-18T11:01:13.387Z,27.73
2022-12-18T11:04:09.001Z,30.23
2022-12-18T11:07:00.470Z,28.30
2022-12-18T11:09:35.017Z,27.40
2022-12-18T11:12:04.643Z,28.60
2022-12-18T11:14:36.615Z,27.38
2022-12-18T11:17:25.441Z,27.83
2022-12-18T11:19:54.752Z,26.90
2022-12-18T11:22:26.971Z,29.00
2022-12-18T11:25:29.690Z,29.15
2022-12-18T11:27:49.319Z,29.20
2022-12-18T11:30:25.171Z,29.02
2022-12-18T11:33:05.099Z,28.63
2022-12-18T11:35:31.711Z,27.30
2022-12-18T11:38:03.785Z,28.55
2022-12-18T11:40:41.029Z,27.70
2022-12-18T11:43:12.895Z,27.70
2022-12-18T11:45:49.707Z,27.98
2022-12-18T11:48:23.635Z,29.40
2022-12-18T11:50:55.603Z,24.42
2022-12-18T11:53:22.563Z,26.83
2022-12-18T11:56:13.902Z,27.42
2022-12-18T11:59:25.127Z,28.05
2022-12-18T12:01:52.182Z,28.00
2022-12-18T12:04:48.074Z,29.38
2022-12-18T12:07:35.859Z,24.45
2022-12-18T12:10:05.265Z,28.15
2022-12-18T12:13:02.355Z,27.83
2022-12-18T12:15:35.802Z,26.40
2022-12-18T12:18:11.231Z,25.60
2022-12-18T12:20:43.268Z,28.35
2022-12-18T12:23:27.350Z,26.08
2022-12-18T12:26:00.539Z,26.25
2022-12-18T12:28:42.696Z,26.98
2022-12-18T12:31:12.375Z,29.48
2022-12-18T12:33:53.172Z,25.55
2022-12-18T12:37:07.302Z,25.98
2022-12-18T12:39:38.502Z,25.17
2022-12-18T12:42:16.765Z,23.95
2022-12-18T12:44:56.421Z,27.83
2022-12-18T12:47:28.715Z,27.97
2022-12-18T12:49:57.906Z,27.05
2022-12-18T12:53:00.646Z,28.15
2022-12-18T12:55:29.019Z,22.88
2022-12-18T12:58:22.495Z,25.13
2022-12-18T13:01:10.328Z,24.15
2022-12-18T13:03:49.938Z,24.00
2022-12-18T13:06:30.319Z,26.90
2022-12-18T13:08:59.475Z,26.50
2022-12-18T13:11:31.022Z,23.95
2022-12-18T13:13:57.818Z,23.23
2022-12-18T13:16:26.772Z,25.27
2022-12-18T13:18:55.017Z,25.35
2022-12-18T13:21:33.820Z,25.70
2022-12-18T13:24:25.967Z,24.58
2022-12-18T13:26:53.024Z,23.52
2022-12-18T13:29:45.224Z,25.58
2022-12-18T13:32:24.155Z,26.17
2022-12-18T13:35:34.776Z,26.13
2022-12-18T13:38:01.857Z,27.52
2022-12-18T13:40:40.768Z,26.45
2022-12-18T13:43:19.767Z,26.83
2022-12-18T13:46:03.162Z,28.30
2022-12-18T13:48:33.171Z,24.60
2022-12-18T13:51:04.497Z,27.95
2022-12-18T13:53:35.536Z,25.33
2022-12-18T13:56:03.713Z,26.55
2022-12-18T13:58:30.423Z,24.90
2022-12-18T14:00:57.245Z,24.90
2022-12-18T14:03:26.093Z,28.13
2022-12-18T14:05:55.580Z,27.10
2022-12-18T14:08:22.192Z,25.65
2022-12-18T14:10:50.392Z,25.92
2022-12-18T14:13:29.959Z,25.17
2022-12-18T14:16:07.718Z,24.63
2022-12-18T14:18:44.911Z,26.33
2022-12-18T14:21:23.607Z,25.13
2022-12-18T14:23:50.499Z,25.02
2022-12-18T14:26:28.628Z,27.00
2022-12-18T14:28:58.608Z,26.65
2022-12-18T14:31:26.824Z,26.10
2022-12-18T14:33:54.150Z,24.92
2022-12-18T14:36:28.239Z,27.70
2022-12-18T14:38:59.214Z,28.40
2022-12-18T14:41:26.515Z,27.83
2022-12-18T14:43:54.978Z,26.33
2022-12-18T14:46:36.677Z,32.00
2022-12-18T14:49:35.452Z,29.05
2022-12-18T14:52:05.536Z,33.15
2022-12-18T14:54:35.077Z,30.50
2022-12-18T14:57:26.847Z,33.45
2022-12-18T14:59:53.794Z,27.80
2022-12-18T15:02:28.218Z,30.88
2022-12-18T15:05:30.623Z,31.70
2022-12-18T15:07:59.639Z,31.00
2022-12-18T15:10:28.504Z,25.88
2022-12-18T15:12:57.978Z,28.70
2022-12-18T15:15:38.364Z,28.52
2022-12-18T15:20:46.452Z,28.20
2022-12-18T15:23:44.840Z,30.58
2022-12-18T15:26:13.720Z,29.17
2022-12-18T15:28:56.734Z,30.95
2022-12-18T15:31:26.330Z,31.85
2022-12-18T15:33:52.819Z,30.42
2022-12-18T15:36:26.217Z,30.13
2022-12-18T15:38:55.021Z,31.05
2022-12-18T15:41:24.885Z,31.88
2022-12-18T15:43:53.408Z,30.95
2022-12-18T15:46:23.614Z,30.10
2022-12-18T15:48:51.239Z,32.88
2022-12-18T15:51:40.238Z,33.08
2022-12-18T15:54:12.539Z,33.33
2022-12-18T15:56:39.060Z,34.25
2022-12-18T15:59:15.076Z,36.35
2022-12-18T16:01:43.094Z,38.47
2022-12-18T16:04:13.987Z,34.67
2022-12-18T16:07:12.718Z,35.35
2022-12-18T16:09:27.411Z,52.10
2022-12-18T16:11:54.113Z,45.65
2022-12-18T16:14:23.307Z,42.00
2022-12-18T16:16:53.346Z,37.08
2022-12-18T16:19:20.403Z,42.67
2022-12-18T16:21:47.276Z,41.80
2022-12-18T16:24:21.862Z,39.92
2022-12-18T16:26:48.885Z,41.85
2022-12-18T16:29:15.636Z,36.63
2022-12-18T16:31:44.950Z,41.85
2022-12-18T16:34:20.207Z,37.72
2022-12-18T16:36:50.431Z,36.13
2022-12-18T16:39:17.490Z,37.08
2022-12-18T16:41:44.044Z,36.00
2022-12-18T16:44:10.603Z,36.40
2022-12-18T16:46:39.250Z,33.58
2022-12-18T16:49:06.295Z,32.65
2022-12-18T16:51:33.051Z,33.22
2022-12-18T16:53:59.534Z,36.63
2022-12-18T16:56:26.119Z,35.47
2022-12-18T16:58:53.771Z,38.47
2022-12-18T17:01:20.409Z,37.08
2022-12-18T17:03:59.866Z,42.65
2022-12-18T17:06:27.760Z,39.10
2022-12-18T17:09:01.987Z,41.80
2022-12-18T17:11:30.312Z,46.83
2022-12-18T17:13:57.128Z,49.13
2022-12-18T17:16:25.052Z,54.03
2022-12-18T17:18:52.917Z,55.17
2022-12-18T17:21:19.761Z,40.88
2022-12-18T17:23:46.367Z,35.67
2022-12-18T17:26:13.560Z,39.03
2022-12-18T17:28:41.104Z,44.40
2022-12-18T17:31:27.714Z,36.53
2022-12-18T17:33:54.549Z,36.90
2022-12-18T17:36:21.151Z,38.63
2022-12-18T17:38:55.983Z,35.67
2022-12-18T17:41:23.328Z,36.33
2022-12-18T17:43:56.628Z,36.38
2022-12-18T17:46:23.836Z,33.42
2022-12-18T17:48:50.369Z,36.90
2022-12-18T17:51:17.587Z,37.85
2022-12-18T17:53:44.892Z,37.25
2022-12-18T17:56:16.597Z,37.08
2022-12-18T17:58:44.838Z,55.50
2022-12-18T18:01:15.427Z,41.97
2022-12-18T18:03:43.486Z,40.20
2022-12-18T18:06:10.313Z,44.78
2022-12-18T18:08:37.295Z,46.05
2022-12-18T18:11:06.387Z,41.72
2022-12-18T18:13:37.831Z,44.28
2022-12-18T18:16:07.068Z,39.70
2022-12-18T18:18:33.642Z,42.25
2022-12-18T18:21:07.141Z,40.42
2022-12-18T18:23:35.143Z,35.10
2022-12-18T18:26:09.336Z,36.00
2022-12-18T18:28:36.433Z,35.90
2022-12-18T18:31:06.837Z,38.58
2022-12-18T18:36:01.516Z,37.17
2022-12-18T18:38:28.500Z,35.40
2022-12-18T18:41:00.132Z,39.03
2022-12-18T18:43:26.834Z,38.90
2022-12-18T18:45:59.638Z,37.00
2022-12-18T18:48:28.752Z,36.92
2022-12-18T18:51:05.786Z,41.63
2022-12-18T18:53:36.581Z,38.65
2022-12-18T18:56:37.762Z,38.80
2022-12-18T18:58:49.983Z,43.20
2022-12-18T19:01:18.044Z,36.28
2022-12-18T19:03:45.482Z,37.03
2022-12-18T19:06:15.363Z,43.20
2022-12-18T19:08:42.399Z,36.65
2022-12-18T19:11:11.145Z,34.22
2022-12-18T19:13:37.839Z,41.53
2022-12-18T19:16:07.271Z,37.40
2022-12-18T19:18:34.521Z,41.42
2022-12-18T19:21:02.823Z,41.75
2022-12-18T19:23:30.065Z,46.72
2022-12-18T19:26:17.065Z,44.25
2022-12-18T19:28:47.304Z,42.25
2022-12-18T19:31:19.949Z,42.80
2022-12-18T19:33:52.162Z,42.15
2022-12-18T19:36:20.211Z,41.78
2022-12-18T19:38:48.400Z,39.67
2022-12-18T19:41:15.737Z,44.35
2022-12-18T19:43:42.662Z,36.20
2022-12-18T19:46:11.840Z,41.47
2022-12-18T19:48:38.864Z,39.63
2022-12-18T19:51:11.219Z,40.47
2022-12-18T19:53:37.774Z,42.30
2022-12-18T19:56:13.036Z,38.35
2022-12-18T19:58:40.007Z,36.80
2022-12-18T20:01:07.078Z,39.53
2022-12-18T20:03:35.722Z,39.10
2022-12-18T20:06:32.752Z,36.50
2022-12-18T20:09:04.951Z,37.40
2022-12-18T20:11:32.636Z,39.78
2022-12-18T20:13:59.147Z,35.88
2022-12-18T20:16:25.781Z,36.45
2022-12-18T20:18:56.741Z,38.17
2022-12-18T20:21:26.260Z,36.72
2022-12-18T20:23:52.821Z,36.60
2022-12-18T20:26:19.326Z,37.20
2022-12-18T20:28:45.897Z,38.92
2022-12-18T20:31:16.545Z,35.95
2022-12-18T20:33:43.379Z,38.95
2022-12-18T20:36:23.588Z,42.08
2022-12-18T20:38:52.809Z,40.65
2022-12-18T20:41:24.008Z,39.72
2022-12-18T20:43:50.864Z,41.72
2022-12-18T20:46:20.624Z,40.33
2022-12-18T20:48:47.217Z,37.25
2022-12-18T20:51:16.883Z,38.80
2022-12-18T20:53:43.973Z,36.50
2022-12-18T20:56:13.295Z,33.10
2022-12-18T20:58:48.309Z,33.47
2022-12-18T21:01:17.906Z,34.97
2022-12-18T21:03:45.175Z,37.28
2022-12-18T21:06:12.375Z,33.58
2022-12-18T21:08:39.133Z,34.08
2022-12-18T21:11:32.756Z,37.10
2022-12-18T21:13:59.663Z,35.38
2022-12-18T21:16:27.037Z,36.33
2022-12-18T21:18:53.547Z,37.47
2022-12-18T21:21:26.256Z,33.13
2022-12-18T21:23:53.885Z,34.50
2022-12-18T21:26:25.671Z,34.50
2022-12-18T21:28:57.870Z,29.90
2022-12-18T21:31:26.827Z,35.63
2022-12-18T21:33:57.394Z,32.47
2022-12-18T21:36:28.650Z,30.42
2022-12-18T21:38:55.632Z,33.92
2022-12-18T21:41:23.552Z,34.03
2022-12-18T21:43:50.132Z,33.85
2022-12-18T21:46:16.683Z,36.88
2022-12-18T21:48:43.226Z,34.72
2022-12-18T21:51:10.123Z,35.38
2022-12-18T21:53:36.643Z,33.38
2022-12-18T21:56:03.245Z,30.55
2022-12-18T21:58:29.726Z,33.17
2022-12-18T22:00:56.268Z,31.45
2022-12-18T22:03:22.916Z,30.02
2022-12-18T22:05:51.433Z,32.60
2022-12-18T22:08:33.195Z,31.30
2022-12-18T22:10:59.895Z,30.30
2022-12-18T22:13:26.468Z,28.48
2022-12-18T22:15:53.038Z,32.65
2022-12-18T22:18:19.672Z,28.05
2022-12-18T22:20:46.165Z,27.45
2022-12-18T22:23:13.574Z,27.40
2022-12-18T22:25:40.355Z,26.58
2022-12-18T22:28:06.957Z,32.03
2022-12-18T22:30:33.650Z,28.50
2022-12-18T22:33:00.206Z,25.52
2022-12-18T22:35:26.682Z,27.08
2022-12-18T22:37:53.187Z,29.20
2022-12-18T22:40:26.779Z,29.92
2022-12-18T22:42:54.400Z,29.35
2022-12-18T22:45:27.003Z,29.17
2022-12-18T22:47:53.714Z,28.08
2022-12-18T22:50:20.263Z,29.77
2022-12-18T22:52:46.738Z,31.95
2022-12-18T22:55:13.265Z,30.73
2022-12-18T22:57:39.783Z,34.88
2022-12-18T23:00:09.746Z,34.00
2022-12-18T23:02:36.461Z,33.75
2022-12-18T23:05:03.116Z,35.13
2022-12-18T23:07:29.674Z,34.17
2022-12-18T23:10:00.776Z,35.30
2022-12-18T23:12:27.677Z,33.60
2022-12-18T23:14:54.281Z,29.42
2022-12-18T23:17:20.727Z,29.60
2022-12-18T23:19:49.210Z,30.13
2022-12-18T23:22:16.673Z,31.35
2022-12-18T23:24:43.111Z,29.52
2022-12-18T23:27:11.865Z,30.10
2022-12-18T23:29:39.208Z,27.95
2022-12-18T23:32:05.807Z,30.13
2022-12-18T23:34:32.354Z,31.55
2022-12-18T23:36:58.976Z,28.60
2022-12-18T23:39:29.082Z,26.92
2022-12-18T23:41:59.589Z,27.85
2022-12-18T23:44:26.464Z,30.98
2022-12-18T23:46:53.100Z,31.88
2022-12-18T23:49:19.623Z,29.65
2022-12-18T23:51:46.079Z,25.95
2022-12-18T23:54:12.552Z,26.77
2022-12-18T23:56:39.067Z,24.88
2022-12-18T23:59:05.532Z,22.88
